sensor_id;sensor_type;location;lat;lon;timestamp;temperature;humidity
53272;DHT22;39160;48.580;7.756;2023-12-14T00:02:09;10.30;99.90
53272;DHT22;39160;48.580;7.756;2023-12-14T00:07:00;10.20;99.90
53272;DHT22;39160;48.580;7.756;2023-12-14T00:11:50;10.20;99.90
53272;DHT22;39160;48.580;7.756;2023-12-14T00:16:41;10.30;99.90
53272;DHT22;39160;48.580;7.756;2023-12-14T00:21:31;10.30;99.90
53272;DHT22;39160;48.580;7.756;2023-12-14T00:26:22;10.30;99.90
53272;DHT22;39160;48.580;7.756;2023-12-14T00:31:13;10.20;99.90
53272;DHT22;39160;48.580;7.756;2023-12-14T00:36:04;10.30;99.90
53272;DHT22;39160;48.580;7.756;2023-12-14T00:40:55;10.40;99.90
53272;DHT22;39160;48.580;7.756;2023-12-14T00:45:45;10.30;99.90
53272;DHT22;39160;48.580;7.756;2023-12-14T00:50:36;10.30;99.90
53272;DHT22;39160;48.580;7.756;2023-12-14T00:55:27;10.30;99.90
53272;DHT22;39160;48.580;7.756;2023-12-14T01:00:18;10.40;99.90
53272;DHT22;39160;48.580;7.756;2023-12-14T01:05:09;10.40;99.90
53272;DHT22;39160;48.580;7.756;2023-12-14T01:10:00;10.30;99.90
53272;DHT22;39160;48.580;7.756;2023-12-14T01:14:50;10.40;99.90
53272;DHT22;39160;48.580;7.756;2023-12-14T01:19:41;10.40;99.90
53272;DHT22;39160;48.580;7.756;2023-12-14T01:24:32;10.40;99.90
53272;DHT22;39160;48.580;7.756;2023-12-14T01:29:22;10.30;99.90
53272;DHT22;39160;48.580;7.756;2023-12-14T01:34:13;10.30;99.90
53272;DHT22;39160;48.580;7.756;2023-12-14T01:39:05;10.30;99.90
53272;DHT22;39160;48.580;7.756;2023-12-14T01:43:56;10.20;99.90
53272;DHT22;39160;48.580;7.756;2023-12-14T01:48:47;10.30;99.90
53272;DHT22;39160;48.580;7.756;2023-12-14T01:53:41;10.30;99.90
53272;DHT22;39160;48.580;7.756;2023-12-14T01:58:31;10.30;99.90
53272;DHT22;39160;48.580;7.756;2023-12-14T02:03:22;10.30;99.90
53272;DHT22;39160;48.580;7.756;2023-12-14T02:08:13;10.30;99.90
53272;DHT22;39160;48.580;7.756;2023-12-14T02:13:03;10.30;99.90
53272;DHT22;39160;48.580;7.756;2023-12-14T02:17:54;10.30;99.90
53272;DHT22;39160;48.580;7.756;2023-12-14T02:22:49;10.30;99.90
53272;DHT22;39160;48.580;7.756;2023-12-14T02:27:43;10.30;99.90
53272;DHT22;39160;48.580;7.756;2023-12-14T02:32:33;10.30;99.90
53272;DHT22;39160;48.580;7.756;2023-12-14T02:37:24;10.20;99.90
53272;DHT22;39160;48.580;7.756;2023-12-14T02:42:15;10.20;99.90
53272;DHT22;39160;48.580;7.756;2023-12-14T02:47:05;10.10;99.90
53272;DHT22;39160;48.580;7.756;2023-12-14T02:51:56;10.10;99.90
53272;DHT22;39160;48.580;7.756;2023-12-14T02:56:46;10.20;99.90
53272;DHT22;39160;48.580;7.756;2023-12-14T03:01:37;10.20;99.90
53272;DHT22;39160;48.580;7.756;2023-12-14T03:06:28;10.10;99.90
53272;DHT22;39160;48.580;7.756;2023-12-14T03:11:22;10.10;99.90
53272;DHT22;39160;48.580;7.756;2023-12-14T03:16:16;10.20;99.90
53272;DHT22;39160;48.580;7.756;2023-12-14T03:21:07;10.20;99.90
53272;DHT22;39160;48.580;7.756;2023-12-14T03:25:57;10.10;99.90
53272;DHT22;39160;48.580;7.756;2023-12-14T03:30:48;10.10;99.90
53272;DHT22;39160;48.580;7.756;2023-12-14T03:35:39;10.10;99.90
53272;DHT22;39160;48.580;7.756;2023-12-14T03:40:32;10.10;99.90
53272;DHT22;39160;48.580;7.756;2023-12-14T03:45:22;10.10;99.90
53272;DHT22;39160;48.580;7.756;2023-12-14T03:50:13;10.20;99.90
53272;DHT22;39160;48.580;7.756;2023-12-14T03:55:04;10.20;99.90
53272;DHT22;39160;48.580;7.756;2023-12-14T03:59:55;10.10;99.90
53272;DHT22;39160;48.580;7.756;2023-12-14T04:04:45;10.20;99.90
53272;DHT22;39160;48.580;7.756;2023-12-14T04:09:37;10.10;99.90
53272;DHT22;39160;48.580;7.756;2023-12-14T04:14:28;10.10;99.90
53272;DHT22;39160;48.580;7.756;2023-12-14T04:19:18;10.10;99.90
53272;DHT22;39160;48.580;7.756;2023-12-14T04:24:09;10.10;99.90
53272;DHT22;39160;48.580;7.756;2023-12-14T04:29:01;10.10;99.90
53272;DHT22;39160;48.580;7.756;2023-12-14T04:33:52;10.10;99.90
53272;DHT22;39160;48.580;7.756;2023-12-14T04:38:43;10.20;99.90
53272;DHT22;39160;48.580;7.756;2023-12-14T04:43:36;10.20;99.90
53272;DHT22;39160;48.580;7.756;2023-12-14T04:48:27;10.10;99.90
53272;DHT22;39160;48.580;7.756;2023-12-14T04:53:17;10.10;99.90
53272;DHT22;39160;48.580;7.756;2023-12-14T04:58:08;10.10;99.90
53272;DHT22;39160;48.580;7.756;2023-12-14T05:02:59;10.10;99.90
53272;DHT22;39160;48.580;7.756;2023-12-14T05:07:49;10.10;99.90
53272;DHT22;39160;48.580;7.756;2023-12-14T05:12:40;10.10;99.90
53272;DHT22;39160;48.580;7.756;2023-12-14T05:17:30;10.10;99.90
53272;DHT22;39160;48.580;7.756;2023-12-14T05:22:21;10.10;99.90
53272;DHT22;39160;48.580;7.756;2023-12-14T05:27:12;10.10;99.90
53272;DHT22;39160;48.580;7.756;2023-12-14T05:32:02;10.20;99.90
53272;DHT22;39160;48.580;7.756;2023-12-14T05:36:53;10.20;99.90
53272;DHT22;39160;48.580;7.756;2023-12-14T05:41:44;10.10;99.90
53272;DHT22;39160;48.580;7.756;2023-12-14T05:46:35;10.20;99.90
53272;DHT22;39160;48.580;7.756;2023-12-14T05:51:30;10.00;99.90
53272;DHT22;39160;48.580;7.756;2023-12-14T05:56:21;10.10;99.90
53272;DHT22;39160;48.580;7.756;2023-12-14T06:01:11;10.20;99.90
53272;DHT22;39160;48.580;7.756;2023-12-14T06:06:02;10.20;99.90
53272;DHT22;39160;48.580;7.756;2023-12-14T06:10:53;10.20;99.90
53272;DHT22;39160;48.580;7.756;2023-12-14T06:15:43;10.00;99.90
53272;DHT22;39160;48.580;7.756;2023-12-14T06:20:34;10.00;99.90
53272;DHT22;39160;48.580;7.756;2023-12-14T06:25:25;10.10;99.90
53272;DHT22;39160;48.580;7.756;2023-12-14T06:30:15;10.00;99.90
53272;DHT22;39160;48.580;7.756;2023-12-14T06:35:06;10.00;99.90
53272;DHT22;39160;48.580;7.756;2023-12-14T06:39:57;10.10;99.90
53272;DHT22;39160;48.580;7.756;2023-12-14T06:44:48;10.00;99.90
53272;DHT22;39160;48.580;7.756;2023-12-14T06:49:38;10.00;99.90
53272;DHT22;39160;48.580;7.756;2023-12-14T06:54:30;10.00;99.90
53272;DHT22;39160;48.580;7.756;2023-12-14T06:59:21;10.00;99.90
53272;DHT22;39160;48.580;7.756;2023-12-14T07:04:12;10.10;99.90
53272;DHT22;39160;48.580;7.756;2023-12-14T07:09:04;10.00;99.90
53272;DHT22;39160;48.580;7.756;2023-12-14T07:13:55;10.00;99.90
53272;DHT22;39160;48.580;7.756;2023-12-14T07:18:46;10.00;99.90
53272;DHT22;39160;48.580;7.756;2023-12-14T07:23:37;10.00;99.90
53272;DHT22;39160;48.580;7.756;2023-12-14T07:28:28;10.00;99.90
53272;DHT22;39160;48.580;7.756;2023-12-14T07:33:19;10.00;99.90
53272;DHT22;39160;48.580;7.756;2023-12-14T07:38:10;10.00;99.90
53272;DHT22;39160;48.580;7.756;2023-12-14T07:43:00;9.90;99.90
53272;DHT22;39160;48.580;7.756;2023-12-14T07:47:54;10.00;99.90
53272;DHT22;39160;48.580;7.756;2023-12-14T07:52:48;10.00;99.90
53272;DHT22;39160;48.580;7.756;2023-12-14T07:57:39;9.90;99.90
53272;DHT22;39160;48.580;7.756;2023-12-14T08:02:29;10.00;99.90
53272;DHT22;39160;48.580;7.756;2023-12-14T08:07:20;9.90;99.90
53272;DHT22;39160;48.580;7.756;2023-12-14T08:12:11;10.00;99.90
53272;DHT22;39160;48.580;7.756;2023-12-14T08:17:02;10.00;99.90
53272;DHT22;39160;48.580;7.756;2023-12-14T08:21:53;10.00;99.90
53272;DHT22;39160;48.580;7.756;2023-12-14T08:26:43;10.00;99.90
53272;DHT22;39160;48.580;7.756;2023-12-14T08:31:34;10.00;99.90
53272;DHT22;39160;48.580;7.756;2023-12-14T08:36:25;10.00;99.90
53272;DHT22;39160;48.580;7.756;2023-12-14T08:41:16;10.10;99.90
53272;DHT22;39160;48.580;7.756;2023-12-14T08:46:06;10.10;99.90
53272;DHT22;39160;48.580;7.756;2023-12-14T08:50:57;10.10;99.90
53272;DHT22;39160;48.580;7.756;2023-12-14T08:55:48;10.10;99.90
53272;DHT22;39160;48.580;7.756;2023-12-14T09:00:39;10.20;99.90
53272;DHT22;39160;48.580;7.756;2023-12-14T09:05:30;10.10;99.90
53272;DHT22;39160;48.580;7.756;2023-12-14T09:10:20;10.10;99.90
53272;DHT22;39160;48.580;7.756;2023-12-14T09:15:11;10.20;99.90
53272;DHT22;39160;48.580;7.756;2023-12-14T09:20:02;10.30;99.90
53272;DHT22;39160;48.580;7.756;2023-12-14T09:24:56;10.40;99.90
53272;DHT22;39160;48.580;7.756;2023-12-14T09:29:47;10.40;99.90
53272;DHT22;39160;48.580;7.756;2023-12-14T09:34:37;10.40;99.90
53272;DHT22;39160;48.580;7.756;2023-12-14T09:39:28;10.40;99.90
53272;DHT22;39160;48.580;7.756;2023-12-14T09:44:19;10.40;99.90
53272;DHT22;39160;48.580;7.756;2023-12-14T09:49:10;10.30;99.90
53272;DHT22;39160;48.580;7.756;2023-12-14T09:54:02;10.30;99.90
53272;DHT22;39160;48.580;7.756;2023-12-14T09:58:53;10.30;99.90
53272;DHT22;39160;48.580;7.756;2023-12-14T10:03:44;10.40;99.90
53272;DHT22;39160;48.580;7.756;2023-12-14T10:08:35;10.40;99.90
53272;DHT22;39160;48.580;7.756;2023-12-14T10:13:38;10.50;99.90
53272;DHT22;39160;48.580;7.756;2023-12-14T10:18:31;10.60;99.90
53272;DHT22;39160;48.580;7.756;2023-12-14T10:23:24;10.60;99.90
53272;DHT22;39160;48.580;7.756;2023-12-14T10:28:16;10.50;99.90
53272;DHT22;39160;48.580;7.756;2023-12-14T10:33:08;10.50;99.90
53272;DHT22;39160;48.580;7.756;2023-12-14T10:38:04;10.60;99.90
53272;DHT22;39160;48.580;7.756;2023-12-14T10:43:00;10.60;99.90
53272;DHT22;39160;48.580;7.756;2023-12-14T10:47:51;10.60;99.90
53272;DHT22;39160;48.580;7.756;2023-12-14T10:52:43;10.70;99.90
53272;DHT22;39160;48.580;7.756;2023-12-14T10:57:35;10.70;99.90
53272;DHT22;39160;48.580;7.756;2023-12-14T11:02:25;10.80;99.90
53272;DHT22;39160;48.580;7.756;2023-12-14T11:07:16;10.70;99.90
53272;DHT22;39160;48.580;7.756;2023-12-14T11:12:07;10.60;99.90
53272;DHT22;39160;48.580;7.756;2023-12-14T11:17:06;10.70;99.90
53272;DHT22;39160;48.580;7.756;2023-12-14T11:22:13;10.80;99.90
53272;DHT22;39160;48.580;7.756;2023-12-14T11:27:13;10.90;99.90
53272;DHT22;39160;48.580;7.756;2023-12-14T11:32:06;10.90;99.90
53272;DHT22;39160;48.580;7.756;2023-12-14T11:36:57;10.80;99.90
53272;DHT22;39160;48.580;7.756;2023-12-14T11:42:05;10.80;99.90
53272;DHT22;39160;48.580;7.756;2023-12-14T11:46:58;10.80;99.90
53272;DHT22;39160;48.580;7.756;2023-12-14T11:51:51;10.70;99.90
53272;DHT22;39160;48.580;7.756;2023-12-14T11:56:47;10.70;99.90
53272;DHT22;39160;48.580;7.756;2023-12-14T12:01:38;10.70;99.90
53272;DHT22;39160;48.580;7.756;2023-12-14T12:06:29;10.70;99.90
53272;DHT22;39160;48.580;7.756;2023-12-14T12:11:21;10.70;99.90
53272;DHT22;39160;48.580;7.756;2023-12-14T12:16:12;10.70;99.90
53272;DHT22;39160;48.580;7.756;2023-12-14T12:21:03;10.60;99.90
53272;DHT22;39160;48.580;7.756;2023-12-14T12:25:56;10.60;99.90
53272;DHT22;39160;48.580;7.756;2023-12-14T12:30:47;10.50;99.90
53272;DHT22;39160;48.580;7.756;2023-12-14T12:35:38;10.60;99.90
53272;DHT22;39160;48.580;7.756;2023-12-14T12:40:28;10.70;99.90
53272;DHT22;39160;48.580;7.756;2023-12-14T12:45:24;10.70;99.90
53272;DHT22;39160;48.580;7.756;2023-12-14T12:50:17;10.70;99.90
53272;DHT22;39160;48.580;7.756;2023-12-14T12:55:08;10.70;99.90
53272;DHT22;39160;48.580;7.756;2023-12-14T12:59:59;10.70;99.90
53272;DHT22;39160;48.580;7.756;2023-12-14T13:04:50;10.70;99.90
53272;DHT22;39160;48.580;7.756;2023-12-14T13:09:41;10.70;99.90
53272;DHT22;39160;48.580;7.756;2023-12-14T13:14:31;10.70;99.90
53272;DHT22;39160;48.580;7.756;2023-12-14T13:19:22;10.70;99.90
53272;DHT22;39160;48.580;7.756;2023-12-14T13:24:13;10.60;99.90
53272;DHT22;39160;48.580;7.756;2023-12-14T13:29:04;10.60;99.90
53272;DHT22;39160;48.580;7.756;2023-12-14T13:33:54;10.70;99.90
53272;DHT22;39160;48.580;7.756;2023-12-14T13:38:45;10.80;99.90
53272;DHT22;39160;48.580;7.756;2023-12-14T13:43:36;10.80;99.90
53272;DHT22;39160;48.580;7.756;2023-12-14T13:48:27;10.80;99.90
53272;DHT22;39160;48.580;7.756;2023-12-14T13:53:18;10.90;99.90
53272;DHT22;39160;48.580;7.756;2023-12-14T13:58:10;10.90;99.90
53272;DHT22;39160;48.580;7.756;2023-12-14T14:03:01;10.90;99.90
53272;DHT22;39160;48.580;7.756;2023-12-14T14:07:53;11.00;99.90
53272;DHT22;39160;48.580;7.756;2023-12-14T14:12:44;10.90;99.90
53272;DHT22;39160;48.580;7.756;2023-12-14T14:17:35;10.90;99.90
53272;DHT22;39160;48.580;7.756;2023-12-14T14:22:26;10.80;99.90
53272;DHT22;39160;48.580;7.756;2023-12-14T14:27:16;10.80;99.90
53272;DHT22;39160;48.580;7.756;2023-12-14T14:32:07;10.70;99.90
53272;DHT22;39160;48.580;7.756;2023-12-14T14:36:58;10.80;99.90
53272;DHT22;39160;48.580;7.756;2023-12-14T14:41:49;10.80;99.90
53272;DHT22;39160;48.580;7.756;2023-12-14T14:46:40;10.80;99.90
53272;DHT22;39160;48.580;7.756;2023-12-14T14:51:31;10.80;99.90
53272;DHT22;39160;48.580;7.756;2023-12-14T14:56:22;10.80;99.90
53272;DHT22;39160;48.580;7.756;2023-12-14T15:01:13;10.80;99.90
53272;DHT22;39160;48.580;7.756;2023-12-14T15:06:04;10.70;99.90
53272;DHT22;39160;48.580;7.756;2023-12-14T15:10:55;10.80;99.90
53272;DHT22;39160;48.580;7.756;2023-12-14T15:15:48;10.80;99.90
53272;DHT22;39160;48.580;7.756;2023-12-14T15:20:38;10.70;99.90
53272;DHT22;39160;48.580;7.756;2023-12-14T15:25:31;10.80;99.90
53272;DHT22;39160;48.580;7.756;2023-12-14T15:30:21;10.80;99.90
53272;DHT22;39160;48.580;7.756;2023-12-14T15:35:12;10.80;99.90
53272;DHT22;39160;48.580;7.756;2023-12-14T15:40:03;10.70;99.90
53272;DHT22;39160;48.580;7.756;2023-12-14T15:44:55;10.70;99.90
53272;DHT22;39160;48.580;7.756;2023-12-14T15:49:46;10.80;99.90
53272;DHT22;39160;48.580;7.756;2023-12-14T15:54:37;10.80;99.90
53272;DHT22;39160;48.580;7.756;2023-12-14T15:59:27;10.70;99.90
53272;DHT22;39160;48.580;7.756;2023-12-14T16:04:18;10.70;99.90
53272;DHT22;39160;48.580;7.756;2023-12-14T16:09:09;10.70;99.90
53272;DHT22;39160;48.580;7.756;2023-12-14T16:13:59;10.70;99.90
53272;DHT22;39160;48.580;7.756;2023-12-14T16:18:50;10.70;99.90
53272;DHT22;39160;48.580;7.756;2023-12-14T16:23:41;10.70;99.90
53272;DHT22;39160;48.580;7.756;2023-12-14T16:28:31;10.60;99.90
53272;DHT22;39160;48.580;7.756;2023-12-14T16:33:22;10.60;99.90
53272;DHT22;39160;48.580;7.756;2023-12-14T16:38:13;10.40;99.90
53272;DHT22;39160;48.580;7.756;2023-12-14T16:43:03;10.40;99.90
53272;DHT22;39160;48.580;7.756;2023-12-14T16:47:54;10.40;99.90
53272;DHT22;39160;48.580;7.756;2023-12-14T16:52:44;10.40;99.90
53272;DHT22;39160;48.580;7.756;2023-12-14T16:57:35;10.30;99.90
53272;DHT22;39160;48.580;7.756;2023-12-14T17:02:26;10.30;99.90
53272;DHT22;39160;48.580;7.756;2023-12-14T17:07:17;10.30;99.90
53272;DHT22;39160;48.580;7.756;2023-12-14T17:12:08;10.20;99.90
53272;DHT22;39160;48.580;7.756;2023-12-14T17:16:59;10.10;99.90
53272;DHT22;39160;48.580;7.756;2023-12-14T17:21:53;10.00;99.90
53272;DHT22;39160;48.580;7.756;2023-12-14T17:26:47;9.90;99.90
53272;DHT22;39160;48.580;7.756;2023-12-14T17:31:37;10.00;99.90
53272;DHT22;39160;48.580;7.756;2023-12-14T17:36:34;10.00;99.90
53272;DHT22;39160;48.580;7.756;2023-12-14T17:41:27;10.10;99.90
53272;DHT22;39160;48.580;7.756;2023-12-14T17:46:22;10.10;99.90
53272;DHT22;39160;48.580;7.756;2023-12-14T17:51:15;10.10;99.90
53272;DHT22;39160;48.580;7.756;2023-12-14T17:56:07;10.00;99.90
53272;DHT22;39160;48.580;7.756;2023-12-14T18:00:57;10.00;99.90
53272;DHT22;39160;48.580;7.756;2023-12-14T18:05:50;9.90;99.90
53272;DHT22;39160;48.580;7.756;2023-12-14T18:10:41;9.80;99.90
53272;DHT22;39160;48.580;7.756;2023-12-14T18:15:31;9.90;99.90
53272;DHT22;39160;48.580;7.756;2023-12-14T18:20:22;9.80;99.90
53272;DHT22;39160;48.580;7.756;2023-12-14T18:25:13;9.80;99.90
53272;DHT22;39160;48.580;7.756;2023-12-14T18:30:06;9.80;99.90
53272;DHT22;39160;48.580;7.756;2023-12-14T18:34:58;9.70;99.90
53272;DHT22;39160;48.580;7.756;2023-12-14T18:39:49;9.80;99.90
53272;DHT22;39160;48.580;7.756;2023-12-14T18:44:40;9.70;99.90
53272;DHT22;39160;48.580;7.756;2023-12-14T18:49:33;9.60;99.90
53272;DHT22;39160;48.580;7.756;2023-12-14T18:54:24;9.50;99.90
53272;DHT22;39160;48.580;7.756;2023-12-14T18:59:15;9.50;99.90
53272;DHT22;39160;48.580;7.756;2023-12-14T19:04:06;9.40;99.90
53272;DHT22;39160;48.580;7.756;2023-12-14T19:08:57;9.40;99.90
53272;DHT22;39160;48.580;7.756;2023-12-14T19:13:49;9.40;99.90
53272;DHT22;39160;48.580;7.756;2023-12-14T19:18:39;9.40;99.90
53272;DHT22;39160;48.580;7.756;2023-12-14T19:23:30;9.50;99.90
53272;DHT22;39160;48.580;7.756;2023-12-14T19:28:21;9.40;99.90
53272;DHT22;39160;48.580;7.756;2023-12-14T19:33:11;9.50;99.90
53272;DHT22;39160;48.580;7.756;2023-12-14T19:38:02;9.40;99.90
53272;DHT22;39160;48.580;7.756;2023-12-14T19:42:53;9.30;99.90
53272;DHT22;39160;48.580;7.756;2023-12-14T19:47:44;9.30;99.90
53272;DHT22;39160;48.580;7.756;2023-12-14T19:52:34;9.30;99.90
53272;DHT22;39160;48.580;7.756;2023-12-14T19:57:30;9.40;99.90
53272;DHT22;39160;48.580;7.756;2023-12-14T20:02:21;9.50;99.90
53272;DHT22;39160;48.580;7.756;2023-12-14T20:07:11;9.40;99.90
53272;DHT22;39160;48.580;7.756;2023-12-14T20:12:02;9.40;99.90
53272;DHT22;39160;48.580;7.756;2023-12-14T20:16:53;9.50;99.90
53272;DHT22;39160;48.580;7.756;2023-12-14T20:21:44;9.40;99.90
53272;DHT22;39160;48.580;7.756;2023-12-14T20:26:34;9.40;99.90
53272;DHT22;39160;48.580;7.756;2023-12-14T20:31:26;9.40;99.90
53272;DHT22;39160;48.580;7.756;2023-12-14T20:36:16;9.40;99.90
53272;DHT22;39160;48.580;7.756;2023-12-14T20:41:07;9.30;99.90
53272;DHT22;39160;48.580;7.756;2023-12-14T20:45:58;9.40;99.90
53272;DHT22;39160;48.580;7.756;2023-12-14T20:50:49;9.30;99.90
53272;DHT22;39160;48.580;7.756;2023-12-14T20:55:41;9.30;99.90
53272;DHT22;39160;48.580;7.756;2023-12-14T21:00:31;9.20;99.90
53272;DHT22;39160;48.580;7.756;2023-12-14T21:05:22;9.20;99.90
53272;DHT22;39160;48.580;7.756;2023-12-14T21:10:13;9.20;99.90
53272;DHT22;39160;48.580;7.756;2023-12-14T21:15:04;9.20;99.90
53272;DHT22;39160;48.580;7.756;2023-12-14T21:19:55;9.20;99.90
53272;DHT22;39160;48.580;7.756;2023-12-14T21:24:46;9.10;99.90
53272;DHT22;39160;48.580;7.756;2023-12-14T21:29:40;9.20;99.90
53272;DHT22;39160;48.580;7.756;2023-12-14T21:34:30;9.00;99.90
53272;DHT22;39160;48.580;7.756;2023-12-14T21:39:21;9.00;99.90
53272;DHT22;39160;48.580;7.756;2023-12-14T21:44:12;8.90;99.90
53272;DHT22;39160;48.580;7.756;2023-12-14T21:49:02;8.90;99.90
53272;DHT22;39160;48.580;7.756;2023-12-14T21:53:53;8.90;99.90
53272;DHT22;39160;48.580;7.756;2023-12-14T21:58:44;8.80;99.90
53272;DHT22;39160;48.580;7.756;2023-12-14T22:03:34;8.80;99.90
53272;DHT22;39160;48.580;7.756;2023-12-14T22:08:25;8.80;99.90
53272;DHT22;39160;48.580;7.756;2023-12-14T22:13:15;8.80;99.90
53272;DHT22;39160;48.580;7.756;2023-12-14T22:18:06;8.90;99.90
53272;DHT22;39160;48.580;7.756;2023-12-14T22:22:58;8.90;99.90
53272;DHT22;39160;48.580;7.756;2023-12-14T22:27:49;8.80;99.90
53272;DHT22;39160;48.580;7.756;2023-12-14T22:32:39;8.80;99.90
53272;DHT22;39160;48.580;7.756;2023-12-14T22:37:30;8.90;99.90
53272;DHT22;39160;48.580;7.756;2023-12-14T22:42:21;8.90;99.90
53272;DHT22;39160;48.580;7.756;2023-12-14T22:47:12;8.90;99.90
53272;DHT22;39160;48.580;7.756;2023-12-14T22:52:03;9.00;99.90
53272;DHT22;39160;48.580;7.756;2023-12-14T22:56:54;8.90;99.90
53272;DHT22;39160;48.580;7.756;2023-12-14T23:01:45;8.90;99.90
53272;DHT22;39160;48.580;7.756;2023-12-14T23:06:36;8.90;99.90
53272;DHT22;39160;48.580;7.756;2023-12-14T23:11:27;9.00;99.90
53272;DHT22;39160;48.580;7.756;2023-12-14T23:16:18;9.00;99.90
53272;DHT22;39160;48.580;7.756;2023-12-14T23:21:08;9.00;99.90
53272;DHT22;39160;48.580;7.756;2023-12-14T23:25:59;9.00;99.90
53272;DHT22;39160;48.580;7.756;2023-12-14T23:30:50;9.10;99.90
53272;DHT22;39160;48.580;7.756;2023-12-14T23:35:42;9.10;99.90
53272;DHT22;39160;48.580;7.756;2023-12-14T23:40:32;9.00;99.90
53272;DHT22;39160;48.580;7.756;2023-12-14T23:45:23;9.00;99.90
53272;DHT22;39160;48.580;7.756;2023-12-14T23:50:14;9.10;99.90
53272;DHT22;39160;48.580;7.756;2023-12-14T23:55:05;9.10;99.90
53272;DHT22;39160;48.580;7.756;2023-12-14T23:59:56;9.10;99.90
